Time;durP1;ratioP1;P1;durP2;ratioP2;P2;SDS_P1;SDS_P2;PMS_P1;PMS_P2;Temp;Humidity;BMP_temperature;BMP_pressure;BME280_temperature;BME280_humidity;BME280_pressure;Samples;Min_cycle;Max_cycle;Signal;HPM_P1;HPM_P2
2022/01/12 00:00:39;;;;;;;;;;;3.00;99.90;;;;;;2081061;28;19948;-70
2022/01/12 00:01:43;;;;;;;;;;;3.10;99.90;;;;;;2089492;28;20008;-70
2022/01/12 00:02:44;;;;;;;;;;;3.10;99.90;;;;;;2090001;28;19975;-70
2022/01/12 00:03:45;;;;;;;;;;;3.10;99.90;;;;;;2088833;28;19909;-70
2022/01/12 00:04:45;;;;;;;;;;;3.00;99.90;;;;;;2085081;28;20359;-69
2022/01/12 00:05:46;;;;;;;;;;;3.10;99.90;;;;;;2079138;28;19979;-69
2022/01/12 00:06:47;;;;;;;;;;;3.00;99.90;;;;;;2087953;28;19916;-69
2022/01/12 00:07:50;;;;;;;;;;;3.00;99.90;;;;;;2088793;28;19913;-69
2022/01/12 00:08:51;;;;;;;;;;;3.00;99.90;;;;;;2088589;28;20348;-69
2022/01/12 00:09:51;;;;;;;;;;;3.00;99.90;;;;;;2088467;28;19970;-69
2022/01/12 00:10:52;;;;;;;;;;;3.00;99.90;;;;;;2087480;28;19959;-69
2022/01/12 00:11:52;;;;;;;;;;;3.10;99.90;;;;;;2081145;28;19920;-70
2022/01/12 00:12:52;;;;;;;;;;;3.00;99.90;;;;;;2086595;28;20381;-70
2022/01/12 00:13:53;;;;;;;;;;;3.00;99.90;;;;;;2090309;28;19913;-70
2022/01/12 00:14:54;;;;;;;;;;;3.00;99.90;;;;;;2090360;28;19916;-70
2022/01/12 00:15:54;;;;;;;;;;;3.00;99.90;;;;;;2089742;28;20425;-70
2022/01/12 00:16:59;;;;;;;;;;;3.00;99.90;;;;;;2090388;28;20050;-69
2022/01/12 00:17:59;;;;;;;;;;;3.00;99.90;;;;;;2090006;28;19935;-70
2022/01/12 00:19:00;;;;;;;;;;;3.00;99.90;;;;;;2089688;28;19917;-70
2022/01/12 00:20:01;;;;;;;;;;;3.00;99.90;;;;;;2090252;28;19913;-70
2022/01/12 00:21:01;;;;;;;;;;;3.00;99.90;;;;;;2090311;28;19970;-70
2022/01/12 00:22:02;;;;;;;;;;;3.00;99.90;;;;;;2089996;28;19954;-70
2022/01/12 00:23:02;;;;;;;;;;;3.00;99.90;;;;;;2090445;28;20258;-70
2022/01/12 00:24:03;;;;;;;;;;;3.00;99.90;;;;;;2090131;28;19912;-70
2022/01/12 00:25:22;;;;;;;;;;;3.00;99.90;;;;;;2085369;28;19923;-70
2022/01/12 00:34:08;;;;;;;;;;;3.10;99.90;;;;;;2088294;28;19913;-70
2022/01/12 00:35:09;;;;;;;;;;;3.10;99.90;;;;;;2097279;28;19916;-70
2022/01/12 00:36:09;;;;;;;;;;;3.10;99.90;;;;;;2096923;28;19923;-70
2022/01/12 00:37:10;;;;;;;;;;;3.10;99.90;;;;;;2089741;28;19913;-70
2022/01/12 00:38:11;;;;;;;;;;;3.10;99.90;;;;;;2090114;28;19908;-70
2022/01/12 00:39:11;;;;;;;;;;;3.10;99.90;;;;;;2090007;28;20442;-70
2022/01/12 00:40:12;;;;;;;;;;;3.10;99.90;;;;;;2089830;28;19933;-70
2022/01/12 00:41:14;;;;;;;;;;;3.10;99.90;;;;;;2089567;28;19958;-70
2022/01/12 00:42:15;;;;;;;;;;;3.10;99.90;;;;;;2089469;28;19909;-70
2022/01/12 00:43:16;;;;;;;;;;;3.10;99.90;;;;;;2090138;28;19908;-70
2022/01/12 00:44:29;;;;;;;;;;;3.10;99.90;;;;;;2090162;28;19995;-70
2022/01/12 00:45:31;;;;;;;;;;;3.10;99.90;;;;;;2090139;28;20357;-70
2022/01/12 00:46:31;;;;;;;;;;;3.10;99.90;;;;;;2089318;28;19929;-70
2022/01/12 00:47:32;;;;;;;;;;;3.10;99.90;;;;;;2089837;28;19912;-70
2022/01/12 00:48:36;;;;;;;;;;;3.10;99.90;;;;;;2087242;28;20279;-70
2022/01/12 00:49:36;;;;;;;;;;;3.10;99.90;;;;;;2090264;28;20087;-70
2022/01/12 00:50:37;;;;;;;;;;;3.10;99.90;;;;;;2089941;28;19959;-70
2022/01/12 00:51:39;;;;;;;;;;;3.10;99.90;;;;;;2090132;28;19989;-70
2022/01/12 00:52:39;;;;;;;;;;;3.20;99.90;;;;;;2090247;28;21128;-70
2022/01/12 00:53:40;;;;;;;;;;;3.20;99.90;;;;;;2084874;28;19921;-70
2022/01/12 00:54:40;;;;;;;;;;;3.20;99.90;;;;;;2083247;28;19924;-70
2022/01/12 00:55:41;;;;;;;;;;;3.20;99.90;;;;;;2089310;28;19909;-70
2022/01/12 00:56:41;;;;;;;;;;;3.20;99.90;;;;;;2089776;28;20353;-70
2022/01/12 00:57:42;;;;;;;;;;;3.20;99.90;;;;;;2089692;28;19913;-70
2022/01/12 00:58:43;;;;;;;;;;;3.20;99.90;;;;;;2090022;28;20280;-70
2022/01/12 00:59:43;;;;;;;;;;;3.20;99.90;;;;;;2089686;28;19955;-70
2022/01/12 01:00:44;;;;;;;;;;;3.20;99.90;;;;;;2085993;28;19913;-70
2022/01/12 01:01:44;;;;;;;;;;;3.20;99.90;;;;;;2089529;28;19909;-70
2022/01/12 01:02:45;;;;;;;;;;;3.20;99.90;;;;;;2089501;28;19916;-70
2022/01/12 01:03:46;;;;;;;;;;;3.20;99.90;;;;;;2081630;28;19966;-70
2022/01/12 01:04:46;;;;;;;;;;;3.20;99.90;;;;;;2086326;28;19919;-70
2022/01/12 01:05:47;;;;;;;;;;;3.20;99.90;;;;;;2090045;28;19955;-70
2022/01/12 01:06:47;;;;;;;;;;;3.20;99.90;;;;;;2091147;28;19909;-70
2022/01/12 01:07:48;;;;;;;;;;;3.30;99.90;;;;;;2090569;28;19916;-70
2022/01/12 01:08:51;;;;;;;;;;;3.30;99.90;;;;;;2089640;28;19913;-70
2022/01/12 01:10:02;;;;;;;;;;;3.30;99.90;;;;;;2090731;28;19955;-70
2022/01/12 01:11:02;;;;;;;;;;;3.30;99.90;;;;;;2090648;28;19909;-70
2022/01/12 01:12:03;;;;;;;;;;;3.30;99.90;;;;;;2090622;28;19984;-70
2022/01/12 01:13:03;;;;;;;;;;;3.30;99.90;;;;;;2091182;28;20455;-70
2022/01/12 01:14:14;;;;;;;;;;;3.30;99.90;;;;;;2090994;28;19963;-70
2022/01/12 01:15:18;;;;;;;;;;;3.30;99.90;;;;;;2091270;28;19920;-70
2022/01/12 01:16:25;;;;;;;;;;;3.30;99.90;;;;;;2090739;28;19917;-70
2022/01/12 01:25:34;;;;;;;;;;;3.50;99.90;;;;;;2090826;28;19909;-70
2022/01/12 01:26:34;;;;;;;;;;;3.50;99.90;;;;;;2090987;28;20389;-70
2022/01/12 01:27:35;;;;;;;;;;;3.50;99.90;;;;;;2091259;28;20497;-70
2022/01/12 01:28:35;;;;;;;;;;;3.50;99.90;;;;;;2090874;28;19909;-70
2022/01/12 01:29:36;;;;;;;;;;;3.50;99.90;;;;;;2091255;28;19959;-70
2022/01/12 01:30:38;;;;;;;;;;;3.50;99.90;;;;;;2089050;28;19909;-70
2022/01/12 01:31:40;;;;;;;;;;;3.50;99.90;;;;;;2091377;28;19931;-70
2022/01/12 01:32:41;;;;;;;;;;;3.50;99.90;;;;;;2088080;28;19919;-70
2022/01/12 01:33:42;;;;;;;;;;;3.50;99.90;;;;;;2084277;28;19969;-70
2022/01/12 01:34:46;;;;;;;;;;;3.60;99.90;;;;;;2090934;28;19913;-70
2022/01/12 01:35:54;;;;;;;;;;;3.60;99.90;;;;;;2090885;28;20349;-70
2022/01/12 01:36:55;;;;;;;;;;;3.60;99.90;;;;;;2090178;28;19913;-70
2022/01/12 01:37:58;;;;;;;;;;;3.60;99.90;;;;;;2090892;28;20460;-70
2022/01/12 01:38:58;;;;;;;;;;;3.60;99.90;;;;;;2090721;28;19948;-70
2022/01/12 01:39:59;;;;;;;;;;;3.60;99.90;;;;;;2090748;28;19972;-70
2022/01/12 01:41:00;;;;;;;;;;;3.60;99.90;;;;;;2089488;28;19956;-70
2022/01/12 01:42:05;;;;;;;;;;;3.60;99.90;;;;;;2090400;28;19913;-70
2022/01/12 01:43:15;;;;;;;;;;;3.60;99.90;;;;;;2090821;28;19952;-70
2022/01/12 01:53:20;;;;;;;;;;;3.70;99.90;;;;;;2090816;28;19940;-70
2022/01/12 01:54:21;;;;;;;;;;;3.70;99.90;;;;;;2091180;28;19932;-70
2022/01/12 01:55:21;;;;;;;;;;;3.70;99.90;;;;;;2090720;28;19908;-70
2022/01/12 01:56:22;;;;;;;;;;;3.70;99.90;;;;;;2090592;28;19982;-70
2022/01/12 01:57:24;;;;;;;;;;;3.70;99.90;;;;;;2090534;28;19908;-70
2022/01/12 01:58:24;;;;;;;;;;;3.80;99.90;;;;;;2090907;28;19967;-70
2022/01/12 01:59:25;;;;;;;;;;;3.80;99.90;;;;;;2090734;28;19913;-70
2022/01/12 02:00:26;;;;;;;;;;;3.80;99.90;;;;;;2091279;28;19908;-70
2022/01/12 02:01:26;;;;;;;;;;;3.80;99.90;;;;;;2090353;28;20407;-70
2022/01/12 02:02:27;;;;;;;;;;;3.80;99.90;;;;;;2090228;28;20304;-70
2022/01/12 02:03:29;;;;;;;;;;;3.80;99.90;;;;;;2090356;28;20411;-70
2022/01/12 02:04:29;;;;;;;;;;;3.80;99.90;;;;;;2089171;28;19924;-70
2022/01/12 02:05:31;;;;;;;;;;;3.80;99.90;;;;;;2083638;28;19928;-70
2022/01/12 02:06:32;;;;;;;;;;;3.90;99.90;;;;;;2085796;28;19955;-70
2022/01/12 02:07:33;;;;;;;;;;;3.90;99.90;;;;;;2089439;28;19992;-70
2022/01/12 02:08:35;;;;;;;;;;;3.80;99.90;;;;;;2089323;28;19931;-71
2022/01/12 02:09:37;;;;;;;;;;;3.90;99.90;;;;;;2089175;28;19920;-71
2022/01/12 02:10:37;;;;;;;;;;;3.90;99.90;;;;;;2095446;28;19924;-71
2022/01/12 02:11:38;;;;;;;;;;;3.90;99.90;;;;;;2097085;28;20365;-70
2022/01/12 02:12:38;;;;;;;;;;;3.90;99.90;;;;;;2089004;28;19955;-71
2022/01/12 02:13:39;;;;;;;;;;;3.90;99.90;;;;;;2085870;28;20479;-70
2022/01/12 02:14:39;;;;;;;;;;;3.90;99.90;;;;;;2086193;28;19919;-70
2022/01/12 02:15:44;;;;;;;;;;;4.00;99.90;;;;;;2089409;28;19916;-70
2022/01/12 02:16:53;;;;;;;;;;;3.90;99.90;;;;;;2088741;28;19924;-71
2022/01/12 02:18:14;;;;;;;;;;;3.90;99.90;;;;;;2088941;28;19917;-70
2022/01/12 02:19:30;;;;;;;;;;;3.90;99.90;;;;;;2088717;28;20372;-70
2022/01/12 02:35:21;;;;;;;;;;;4.00;99.90;;;;;;2089483;28;19913;-70
2022/01/12 02:36:26;;;;;;;;;;;4.00;99.90;;;;;;2088342;28;19915;-70
2022/01/12 02:40:05;;;;;;;;;;;4.10;99.90;;;;;;2089356;28;19956;-70
2022/01/12 02:41:06;;;;;;;;;;;4.10;99.90;;;;;;2089014;28;19913;-70
2022/01/12 02:42:06;;;;;;;;;;;4.10;99.90;;;;;;2089339;28;19963;-71
2022/01/12 02:43:15;;;;;;;;;;;4.10;99.90;;;;;;2084544;28;19919;-70
2022/01/12 02:51:08;;;;;;;;;;;4.10;99.90;;;;;;2080969;28;19910;-70
2022/01/12 02:54:38;;;;;;;;;;;4.10;99.90;;;;;;2089338;28;19916;-71
2022/01/12 02:55:38;;;;;;;;;;;4.10;99.90;;;;;;2084388;28;19921;-71
2022/01/12 02:56:39;;;;;;;;;;;4.20;99.90;;;;;;2088382;28;19908;-70
2022/01/12 02:57:39;;;;;;;;;;;4.10;99.90;;;;;;2088572;28;19959;-70
2022/01/12 02:58:41;;;;;;;;;;;4.20;99.90;;;;;;2088779;28;19912;-70
2022/01/12 03:00:02;;;;;;;;;;;4.10;99.90;;;;;;2088850;28;19966;-70
2022/01/12 03:02:51;;;;;;;;;;;4.10;99.90;;;;;;2085244;28;20024;-70
2022/01/12 03:03:31;;;;;;;;;;;4.10;99.90;;;;;;2080672;28;19912;-70
2022/01/12 03:04:31;;;;;;;;;;;4.20;99.90;;;;;;2082793;28;19913;-70
2022/01/12 03:06:36;;;;;;;;;;;4.10;99.90;;;;;;2088400;28;20012;-70
2022/01/12 03:07:39;;;;;;;;;;;4.10;99.90;;;;;;2088540;28;20047;-70
2022/01/12 03:08:39;;;;;;;;;;;4.10;99.90;;;;;;2088940;28;20273;-70
2022/01/12 03:09:40;;;;;;;;;;;4.10;99.90;;;;;;2088406;28;20004;-70
2022/01/12 03:10:40;;;;;;;;;;;4.10;99.90;;;;;;2088376;28;19913;-70
2022/01/12 03:11:41;;;;;;;;;;;4.10;99.90;;;;;;2087154;28;20552;-70
2022/01/12 03:12:42;;;;;;;;;;;4.10;99.90;;;;;;2084438;28;19916;-70
2022/01/12 03:13:43;;;;;;;;;;;4.10;99.90;;;;;;2088909;28;19927;-70
2022/01/12 03:14:43;;;;;;;;;;;4.10;99.90;;;;;;2090719;28;19924;-70
2022/01/12 03:15:47;;;;;;;;;;;4.10;99.90;;;;;;2091627;28;19923;-70
2022/01/12 03:16:47;;;;;;;;;;;4.10;99.90;;;;;;2088393;28;20333;-70
2022/01/12 03:17:48;;;;;;;;;;;4.10;99.90;;;;;;2088867;28;20051;-70
2022/01/12 03:18:49;;;;;;;;;;;4.10;99.90;;;;;;2088707;28;19909;-70
2022/01/12 03:19:49;;;;;;;;;;;4.10;99.90;;;;;;2080729;28;19916;-70
2022/01/12 03:20:50;;;;;;;;;;;4.10;99.90;;;;;;2083957;28;19919;-70
2022/01/12 03:21:50;;;;;;;;;;;4.10;99.90;;;;;;2089071;28;19967;-70
2022/01/12 03:22:51;;;;;;;;;;;4.20;99.90;;;;;;2088451;28;19924;-70
2022/01/12 03:23:51;;;;;;;;;;;4.20;99.90;;;;;;2088923;28;20341;-70
2022/01/12 03:24:52;;;;;;;;;;;4.10;99.90;;;;;;2088936;28;20011;-70
2022/01/12 03:25:53;;;;;;;;;;;4.20;99.90;;;;;;2087622;28;19955;-70
2022/01/12 03:26:54;;;;;;;;;;;4.20;99.90;;;;;;2087846;28;19909;-70
2022/01/12 03:27:58;;;;;;;;;;;4.20;99.90;;;;;;2088896;28;19909;-70
2022/01/12 03:28:59;;;;;;;;;;;4.20;99.90;;;;;;2083212;28;20007;-70
2022/01/12 03:30:00;;;;;;;;;;;4.20;99.90;;;;;;2088733;28;19917;-70
2022/01/12 03:31:09;;;;;;;;;;;4.20;99.90;;;;;;2087643;28;20332;-70
2022/01/12 03:32:12;;;;;;;;;;;4.20;99.90;;;;;;2088368;28;19971;-71
2022/01/12 03:33:31;;;;;;;;;;;4.20;99.90;;;;;;2088845;28;19916;-71
2022/01/12 03:34:34;;;;;;;;;;;4.20;99.90;;;;;;2088572;28;19912;-70
2022/01/12 03:35:50;;;;;;;;;;;4.20;99.90;;;;;;2088196;28;19908;-71
2022/01/12 03:37:15;;;;;;;;;;;4.20;99.90;;;;;;2087942;28;19920;-70
2022/01/12 03:38:20;;;;;;;;;;;4.20;99.90;;;;;;2088163;28;19909;-70
2022/01/12 03:39:21;;;;;;;;;;;4.20;99.90;;;;;;2087905;28;19921;-70
2022/01/12 03:40:21;;;;;;;;;;;4.20;99.90;;;;;;2088217;28;20008;-70
2022/01/12 03:41:23;;;;;;;;;;;4.20;99.90;;;;;;2088275;28;19955;-70
2022/01/12 03:42:23;;;;;;;;;;;4.20;99.90;;;;;;2088282;28;19913;-70
2022/01/12 03:43:24;;;;;;;;;;;4.20;99.90;;;;;;2083337;28;19916;-70
2022/01/12 03:44:24;;;;;;;;;;;4.20;99.90;;;;;;2088391;28;19917;-70
2022/01/12 03:45:25;;;;;;;;;;;4.20;99.90;;;;;;2088024;28;19916;-70
2022/01/12 03:46:28;;;;;;;;;;;4.20;99.90;;;;;;2087927;28;19951;-70
2022/01/12 03:47:28;;;;;;;;;;;4.20;99.90;;;;;;2088100;28;19978;-70
2022/01/12 03:48:29;;;;;;;;;;;4.30;99.90;;;;;;2089501;28;19913;-70
2022/01/12 03:49:29;;;;;;;;;;;4.30;99.90;;;;;;2089779;28;19909;-70
2022/01/12 03:50:30;;;;;;;;;;;4.30;99.90;;;;;;2089765;28;19943;-71
2022/01/12 03:51:30;;;;;;;;;;;4.20;99.90;;;;;;2089811;28;19931;-71
2022/01/12 03:52:31;;;;;;;;;;;4.30;99.90;;;;;;2090384;28;19952;-71
2022/01/12 03:53:32;;;;;;;;;;;4.30;99.90;;;;;;2090538;28;19917;-70
2022/01/12 03:54:32;;;;;;;;;;;4.30;99.90;;;;;;2090386;28;19908;-70
2022/01/12 03:55:33;;;;;;;;;;;4.30;99.90;;;;;;2090434;28;20332;-71
2022/01/12 03:56:33;;;;;;;;;;;4.30;99.90;;;;;;2087905;28;19909;-71
2022/01/12 03:57:34;;;;;;;;;;;4.30;99.90;;;;;;2086922;28;19924;-71
2022/01/12 03:58:34;;;;;;;;;;;4.30;99.90;;;;;;2090482;28;19908;-71
2022/01/12 03:59:35;;;;;;;;;;;4.30;99.90;;;;;;2090214;28;19909;-71
2022/01/12 04:00:35;;;;;;;;;;;4.30;99.90;;;;;;2089995;28;19916;-71
2022/01/12 04:01:36;;;;;;;;;;;4.30;99.90;;;;;;2090322;28;19920;-70
2022/01/12 04:02:39;;;;;;;;;;;4.30;99.90;;;;;;2090224;28;19909;-71
2022/01/12 04:03:43;;;;;;;;;;;4.40;99.90;;;;;;2089965;28;20304;-71
2022/01/12 04:05:07;;;;;;;;;;;4.40;99.90;;;;;;2090280;28;19933;-70
2022/01/12 04:08:43;;;;;;;;;;;4.40;99.90;;;;;;2081721;28;19971;-71
2022/01/12 04:09:44;;;;;;;;;;;4.40;99.90;;;;;;2087056;28;19909;-71
2022/01/12 04:10:44;;;;;;;;;;;4.40;99.90;;;;;;2084648;28;19913;-71
2022/01/12 04:11:45;;;;;;;;;;;4.40;99.90;;;;;;2090457;28;19919;-71
2022/01/12 04:12:45;;;;;;;;;;;4.40;99.90;;;;;;2090192;28;20280;-71
2022/01/12 04:13:48;;;;;;;;;;;4.40;99.90;;;;;;2090557;28;19909;-71
2022/01/12 04:14:49;;;;;;;;;;;4.40;99.90;;;;;;2090223;28;20258;-71
2022/01/12 04:15:51;;;;;;;;;;;4.40;99.90;;;;;;2090098;28;19936;-71
2022/01/12 04:16:51;;;;;;;;;;;4.40;99.90;;;;;;2089649;28;19948;-71
2022/01/12 04:17:51;;;;;;;;;;;4.40;99.90;;;;;;2089652;28;19913;-71
2022/01/12 04:18:52;;;;;;;;;;;4.40;99.90;;;;;;2090221;28;19913;-71
2022/01/12 04:19:52;;;;;;;;;;;4.40;99.90;;;;;;2090351;28;19909;-71
2022/01/12 04:20:53;;;;;;;;;;;4.40;99.90;;;;;;2090210;28;19913;-71
2022/01/12 04:21:53;;;;;;;;;;;4.40;99.90;;;;;;2090293;28;19916;-71
2022/01/12 04:24:13;;;;;;;;;;;4.40;99.90;;;;;;2083463;28;19917;-71
2022/01/12 04:25:14;;;;;;;;;;;4.50;99.90;;;;;;2090038;28;19913;-71
2022/01/12 04:26:15;;;;;;;;;;;4.40;99.90;;;;;;2089970;28;20726;-71
2022/01/12 04:27:15;;;;;;;;;;;4.50;99.90;;;;;;2090076;28;20353;-71
2022/01/12 04:28:17;;;;;;;;;;;4.50;99.90;;;;;;2090041;28;19992;-71
2022/01/12 04:29:17;;;;;;;;;;;4.40;99.90;;;;;;2089605;28;20031;-71
2022/01/12 04:30:17;;;;;;;;;;;4.50;99.90;;;;;;2090479;28;19968;-71
2022/01/12 04:31:19;;;;;;;;;;;4.50;99.90;;;;;;2089537;28;19909;-71
2022/01/12 04:32:21;;;;;;;;;;;4.50;99.90;;;;;;2089225;28;19928;-71
2022/01/12 04:33:23;;;;;;;;;;;4.50;99.90;;;;;;2089369;28;19912;-71
2022/01/12 04:34:23;;;;;;;;;;;4.50;99.90;;;;;;2087684;28;19962;-71
2022/01/12 04:35:29;;;;;;;;;;;4.50;99.90;;;;;;2090085;28;19917;-71
2022/01/12 04:36:30;;;;;;;;;;;4.50;99.90;;;;;;2089513;28;19913;-71
2022/01/12 04:37:30;;;;;;;;;;;4.50;99.90;;;;;;2097270;28;19916;-71
2022/01/12 04:38:33;;;;;;;;;;;4.50;99.90;;;;;;2095055;28;19908;-71
2022/01/12 04:39:34;;;;;;;;;;;4.60;99.90;;;;;;2089380;28;19916;-71
2022/01/12 04:40:35;;;;;;;;;;;4.60;99.90;;;;;;2087471;28;19916;-71
2022/01/12 04:41:36;;;;;;;;;;;4.60;99.90;;;;;;2090026;28;20303;-71
2022/01/12 04:42:36;;;;;;;;;;;4.60;99.90;;;;;;2090198;28;20004;-71
2022/01/12 04:43:38;;;;;;;;;;;4.60;99.90;;;;;;2089979;28;19915;-71
2022/01/12 04:44:44;;;;;;;;;;;4.60;99.90;;;;;;2089979;28;19919;-71
2022/01/12 04:46:34;;;;;;;;;;;4.60;99.90;;;;;;2090089;28;19912;-71
2022/01/12 04:47:16;;;;;;;;;;;4.60;99.90;;;;;;2083815;28;19913;-71
2022/01/12 04:49:47;;;;;;;;;;;4.60;99.90;;;;;;2089847;28;20326;-71
2022/01/12 04:50:46;;;;;;;;;;;4.60;99.90;;;;;;2081555;28;19967;-71
2022/01/12 04:51:46;;;;;;;;;;;4.60;99.90;;;;;;2082543;28;19915;-71
2022/01/12 04:52:47;;;;;;;;;;;4.60;99.90;;;;;;2081632;28;19917;-71
2022/01/12 04:53:47;;;;;;;;;;;4.60;99.90;;;;;;2089420;28;19933;-71
2022/01/12 04:54:47;;;;;;;;;;;4.60;99.90;;;;;;2090093;28;19916;-71
2022/01/12 04:55:49;;;;;;;;;;;4.60;99.90;;;;;;2089375;28;20436;-71
2022/01/12 04:56:49;;;;;;;;;;;4.60;99.90;;;;;;2089401;28;19912;-71
2022/01/12 04:57:50;;;;;;;;;;;4.60;99.90;;;;;;2089835;28;19913;-71
2022/01/12 04:58:50;;;;;;;;;;;4.60;99.90;;;;;;2089943;28;19959;-71
2022/01/12 05:00:05;;;;;;;;;;;4.60;99.90;;;;;;2089653;28;19945;-71
2022/01/12 05:01:10;;;;;;;;;;;4.60;99.90;;;;;;2089935;28;19919;-71
2022/01/12 05:07:30;;;;;;;;;;;4.60;99.90;;;;;;2091594;28;19915;-71
2022/01/12 05:13:13;;;;;;;;;;;4.70;99.90;;;;;;2090568;28;19913;-71
2022/01/12 05:14:13;;;;;;;;;;;4.70;99.90;;;;;;2091267;28;19948;-71
2022/01/12 05:15:22;;;;;;;;;;;4.70;99.90;;;;;;2091120;28;19909;-71
2022/01/12 05:16:23;;;;;;;;;;;4.70;99.90;;;;;;2091170;28;19987;-71
2022/01/12 05:17:23;;;;;;;;;;;4.70;99.90;;;;;;2090923;28;19913;-71
2022/01/12 05:18:24;;;;;;;;;;;4.70;99.90;;;;;;2091340;28;19909;-71
2022/01/12 05:19:24;;;;;;;;;;;4.70;99.90;;;;;;2086436;28;20015;-71
2022/01/12 05:20:25;;;;;;;;;;;4.70;99.90;;;;;;2083076;28;19931;-71
2022/01/12 05:21:25;;;;;;;;;;;4.70;99.90;;;;;;2090920;28;19909;-71
2022/01/12 05:22:26;;;;;;;;;;;4.70;99.90;;;;;;2091207;28;20319;-71
2022/01/12 05:23:27;;;;;;;;;;;4.70;99.90;;;;;;2090457;28;19944;-71
2022/01/12 05:24:27;;;;;;;;;;;4.70;99.90;;;;;;2089939;28;19925;-71
2022/01/12 05:25:27;;;;;;;;;;;4.70;99.90;;;;;;2085192;28;19917;-71
2022/01/12 05:26:28;;;;;;;;;;;4.70;99.90;;;;;;2085464;28;19912;-71
2022/01/12 05:27:28;;;;;;;;;;;4.70;99.90;;;;;;2090654;28;20434;-71
2022/01/12 05:28:29;;;;;;;;;;;4.70;99.90;;;;;;2091046;28;19952;-71
2022/01/12 05:29:30;;;;;;;;;;;4.70;99.90;;;;;;2099242;28;19912;-71
2022/01/12 05:30:30;;;;;;;;;;;4.70;99.90;;;;;;2098467;28;19913;-71
2022/01/12 05:31:31;;;;;;;;;;;4.70;99.90;;;;;;2090942;28;19913;-71
2022/01/12 05:32:31;;;;;;;;;;;4.70;99.90;;;;;;2091050;28;19944;-71
2022/01/12 05:33:32;;;;;;;;;;;4.70;99.90;;;;;;2093164;28;20065;-71
2022/01/12 05:34:33;;;;;;;;;;;4.80;99.90;;;;;;2089733;28;19913;-71
2022/01/12 05:35:34;;;;;;;;;;;4.70;99.90;;;;;;2088839;28;19920;-71
2022/01/12 05:36:34;;;;;;;;;;;4.80;99.90;;;;;;2091050;28;20553;-71
2022/01/12 05:37:35;;;;;;;;;;;4.80;99.90;;;;;;2090857;28;20288;-71
2022/01/12 05:38:36;;;;;;;;;;;4.80;99.90;;;;;;2090687;28;20027;-71
2022/01/12 05:39:38;;;;;;;;;;;4.80;99.90;;;;;;2087019;28;19913;-71
2022/01/12 05:40:40;;;;;;;;;;;4.80;99.90;;;;;;2091064;28;20458;-71
2022/01/12 05:41:40;;;;;;;;;;;4.80;99.90;;;;;;2087164;28;19930;-71
2022/01/12 05:42:42;;;;;;;;;;;4.80;99.90;;;;;;2090246;28;19931;-71
2022/01/12 05:43:45;;;;;;;;;;;4.80;99.90;;;;;;2090287;28;19920;-71
2022/01/12 05:44:45;;;;;;;;;;;4.80;99.90;;;;;;2088543;28;19955;-71
2022/01/12 05:45:46;;;;;;;;;;;4.70;99.90;;;;;;2090436;28;19997;-71
2022/01/12 05:46:47;;;;;;;;;;;4.80;99.90;;;;;;2090049;28;19978;-71
2022/01/12 05:50:08;;;;;;;;;;;4.80;99.90;;;;;;2087991;28;20353;-71
2022/01/12 05:51:08;;;;;;;;;;;4.80;99.90;;;;;;2089918;28;20023;-71
2022/01/12 05:52:09;;;;;;;;;;;4.80;99.90;;;;;;2090403;28;19991;-72
2022/01/12 05:53:09;;;;;;;;;;;4.80;99.90;;;;;;2089787;28;19912;-71
2022/01/12 05:54:10;;;;;;;;;;;4.80;99.90;;;;;;2089903;28;20308;-71
2022/01/12 05:55:12;;;;;;;;;;;4.80;99.90;;;;;;2090426;28;19909;-71
2022/01/12 05:56:12;;;;;;;;;;;4.80;99.90;;;;;;2085089;28;20298;-71
2022/01/12 05:57:13;;;;;;;;;;;4.80;99.90;;;;;;2085886;28;19999;-71
2022/01/12 05:58:13;;;;;;;;;;;4.80;99.90;;;;;;2090988;28;19916;-71
2022/01/12 05:59:14;;;;;;;;;;;4.80;99.90;;;;;;2086991;28;19916;-71
2022/01/12 06:00:15;;;;;;;;;;;4.80;99.90;;;;;;2087436;28;20384;-71
2022/01/12 06:01:16;;;;;;;;;;;4.80;99.90;;;;;;2085088;28;19952;-71
2022/01/12 06:02:16;;;;;;;;;;;4.80;99.90;;;;;;2085383;28;19909;-71
2022/01/12 06:03:17;;;;;;;;;;;4.80;99.90;;;;;;2085466;28;20357;-71
2022/01/12 06:04:17;;;;;;;;;;;4.80;99.90;;;;;;2086309;28;19909;-71
2022/01/12 06:05:19;;;;;;;;;;;4.80;99.90;;;;;;2086262;28;20265;-71
2022/01/12 06:06:19;;;;;;;;;;;4.80;99.90;;;;;;2088013;28;19919;-71
2022/01/12 06:07:20;;;;;;;;;;;4.80;99.90;;;;;;2082741;28;19924;-71
2022/01/12 06:08:20;;;;;;;;;;;4.80;99.90;;;;;;2085759;28;19913;-71
2022/01/12 06:09:22;;;;;;;;;;;4.80;99.90;;;;;;2082808;28;20018;-71
2022/01/12 06:10:23;;;;;;;;;;;4.80;99.90;;;;;;2083116;28;19917;-71
2022/01/12 06:11:24;;;;;;;;;;;4.80;99.90;;;;;;2084835;28;20411;-71
2022/01/12 06:12:24;;;;;;;;;;;4.80;99.90;;;;;;2082868;28;19913;-74
2022/01/12 06:13:25;;;;;;;;;;;4.90;99.90;;;;;;2083256;28;19909;-71
2022/01/12 06:14:25;;;;;;;;;;;4.80;99.90;;;;;;2085674;28;19984;-71
2022/01/12 06:15:26;;;;;;;;;;;4.90;99.90;;;;;;2084236;28;19913;-71
2022/01/12 06:16:27;;;;;;;;;;;4.80;99.90;;;;;;2084135;28;19994;-71
2022/01/12 06:17:28;;;;;;;;;;;4.80;99.90;;;;;;2082370;28;19920;-71
2022/01/12 06:18:28;;;;;;;;;;;4.90;99.90;;;;;;2082881;28;20365;-71
2022/01/12 06:19:29;;;;;;;;;;;4.90;99.90;;;;;;2085803;28;20927;-71
2022/01/12 06:20:29;;;;;;;;;;;4.80;99.90;;;;;;2083829;28;19913;-71
2022/01/12 06:21:30;;;;;;;;;;;4.80;99.90;;;;;;2086137;28;19927;-71
2022/01/12 06:22:30;;;;;;;;;;;4.90;99.90;;;;;;2082307;28;19966;-71
2022/01/12 06:23:30;;;;;;;;;;;4.80;99.90;;;;;;2085954;28;20272;-71
2022/01/12 06:24:31;;;;;;;;;;;4.90;99.90;;;;;;2086411;28;19917;-71
2022/01/12 06:25:31;;;;;;;;;;;4.90;99.90;;;;;;2086160;28;19921;-71
2022/01/12 06:26:32;;;;;;;;;;;4.90;99.90;;;;;;2085447;28;20379;-71
2022/01/12 06:27:34;;;;;;;;;;;4.90;99.90;;;;;;2086651;28;19917;-71
2022/01/12 06:28:38;;;;;;;;;;;4.90;99.90;;;;;;2083664;28;19913;-71
2022/01/12 06:29:44;;;;;;;;;;;4.90;99.90;;;;;;2083272;28;19913;-71
2022/01/12 06:32:04;;;;;;;;;;;4.90;99.90;;;;;;2085149;28;19951;-71
2022/01/12 06:33:04;;;;;;;;;;;4.90;99.90;;;;;;2085390;28;20350;-71
2022/01/12 06:34:05;;;;;;;;;;;4.90;99.90;;;;;;2083848;28;20011;-71
2022/01/12 06:35:05;;;;;;;;;;;4.90;99.90;;;;;;2083163;28;19910;-71
2022/01/12 06:36:06;;;;;;;;;;;4.90;99.90;;;;;;2084211;28;19917;-71
2022/01/12 06:37:07;;;;;;;;;;;4.90;99.90;;;;;;2084088;28;19945;-71
2022/01/12 06:38:07;;;;;;;;;;;4.90;99.90;;;;;;2084122;28;19917;-71
2022/01/12 06:39:09;;;;;;;;;;;5.00;99.90;;;;;;2084924;28;19920;-71
2022/01/12 06:40:12;;;;;;;;;;;4.90;99.90;;;;;;2087550;28;19917;-71
2022/01/12 06:41:13;;;;;;;;;;;4.90;99.90;;;;;;2082840;28;20016;-71
2022/01/12 06:42:13;;;;;;;;;;;4.90;99.90;;;;;;2082587;28;19913;-71
2022/01/12 06:43:14;;;;;;;;;;;4.90;99.90;;;;;;2084968;28;20353;-71
2022/01/12 06:44:17;;;;;;;;;;;4.90;99.90;;;;;;2081765;28;19987;-71
2022/01/12 06:45:18;;;;;;;;;;;4.90;99.90;;;;;;2085528;28;19960;-71
2022/01/12 06:46:24;;;;;;;;;;;5.00;99.90;;;;;;2087494;28;19909;-71
2022/01/12 06:47:25;;;;;;;;;;;5.00;99.90;;;;;;2083377;28;19967;-71
2022/01/12 06:48:25;;;;;;;;;;;4.90;99.90;;;;;;2087267;28;19909;-71
2022/01/12 06:49:26;;;;;;;;;;;4.90;99.90;;;;;;2087130;28;19924;-71
2022/01/12 06:50:26;;;;;;;;;;;5.00;99.90;;;;;;2097816;28;19912;-71
2022/01/12 06:51:27;;;;;;;;;;;5.00;99.90;;;;;;2084604;28;20037;-71
2022/01/12 06:52:27;;;;;;;;;;;4.90;99.90;;;;;;2082471;28;19971;-71
2022/01/12 06:53:28;;;;;;;;;;;5.00;99.90;;;;;;2082673;28;19912;-71
2022/01/12 06:54:28;;;;;;;;;;;5.00;99.90;;;;;;2085947;28;19912;-71
2022/01/12 06:55:28;;;;;;;;;;;5.00;99.90;;;;;;2087006;28;19913;-71
2022/01/12 06:56:29;;;;;;;;;;;5.00;99.90;;;;;;2084739;28;19919;-71
2022/01/12 06:57:31;;;;;;;;;;;5.00;99.90;;;;;;2085228;28;19931;-71
2022/01/12 06:58:31;;;;;;;;;;;5.00;99.90;;;;;;2082569;28;19913;-71
2022/01/12 06:59:31;;;;;;;;;;;5.00;99.90;;;;;;2082814;28;20258;-71
2022/01/12 07:00:32;;;;;;;;;;;5.00;99.90;;;;;;2082568;28;19909;-71
2022/01/12 07:01:33;;;;;;;;;;;5.00;99.90;;;;;;2084725;28;20016;-71
2022/01/12 07:02:33;;;;;;;;;;;5.00;99.90;;;;;;2083723;28;19948;-71
2022/01/12 07:03:33;;;;;;;;;;;5.00;99.90;;;;;;2082072;28;19912;-71
2022/01/12 07:04:35;;;;;;;;;;;5.00;99.90;;;;;;2083850;28;20327;-71
2022/01/12 07:05:35;;;;;;;;;;;5.00;99.90;;;;;;2086695;28;19917;-71
2022/01/12 07:06:36;;;;;;;;;;;5.00;99.90;;;;;;2088022;28;19916;-72
2022/01/12 07:07:36;;;;;;;;;;;5.00;99.90;;;;;;2087312;28;19909;-71
2022/01/12 07:08:37;;;;;;;;;;;5.00;99.90;;;;;;2085552;28;19939;-71
2022/01/12 07:09:37;;;;;;;;;;;5.10;99.90;;;;;;2083903;28;20260;-71
2022/01/12 07:10:38;;;;;;;;;;;5.00;99.90;;;;;;2086731;28;19909;-71
2022/01/12 07:11:38;;;;;;;;;;;5.00;99.90;;;;;;2084607;28;20333;-71
2022/01/12 07:12:39;;;;;;;;;;;5.00;99.90;;;;;;2086757;28;19909;-71
2022/01/12 07:13:39;;;;;;;;;;;5.00;99.90;;;;;;2086153;28;20368;-71
2022/01/12 07:14:40;;;;;;;;;;;5.10;99.90;;;;;;2090423;28;19919;-71
2022/01/12 07:15:41;;;;;;;;;;;5.00;99.90;;;;;;2090193;28;19909;-71
2022/01/12 07:16:41;;;;;;;;;;;5.10;99.90;;;;;;2094638;28;19908;-71
2022/01/12 07:17:42;;;;;;;;;;;5.00;99.90;;;;;;2092308;28;20367;-71
2022/01/12 07:18:42;;;;;;;;;;;5.10;99.90;;;;;;2092083;28;19958;-71